Weather at Alverca Air Base

Public forecast

Using degrees Celsius for public forecast. Weather courtesy of forecast.io.

Current aviation weather report (METAR) for Alverca Air Base

Report is more than 6 hours old.

Retrieved 2021/03/03 17:00 UTC (6 hours ago):

LPAR 031700Z 22007KT 9999 FEW045 20/12 Q1023

Aviation forecast (TAF) for Alverca Air Base

Forecast is more than 12 hours old.

Retrieved 2021/01/28 15:00 UTC (1 month ago):

TAF LPAR 281403Z 2815/2824 VRB02KT 9999 BKN015 PROB30 2815/2819 5000 BR BKN008